WMKM METAR and TAF | Updated Today

WMKM METAR

Malacca Airport

Observation time: 18 min. ago

WMKM 061900Z 05004KT 010V080 9999 SCT028 24/23 Q1009

Need help? Read our tutorial on how to read METARs or read the parsed version below.

Malacca Airport (WMKM) METAR

  • Weather conditions on Mon, 06 Feb 2023 19:00:00 +0000 (18 min. ago):
  • Present conditions: Dry
  • Clouds: Scattered at 853 meters
  • Visibility: Greater than 10 km
  • Wind: 50 degrees at 4 knots
  • Temperature: 24 celsius
  • Dew point: 23 celsius
  • Pressure: 1009 millibars
  • Remarks: None


Useful to know...

WMKM TAF

Malacca Airport

TAF WMKM 061700Z 0618/0718 30005KT 9999 FEW022 TEMPO 0705/0708 5000 TSRA FEW017CB
Observation time: 2:18 hr. ago
Need help? Read our tutorial on how to read TAFs or read the parsed version below.

Parsed version of TAF for Malacca Airport (WMKM)

  • From 06 February at 18:00 UTC, to day 07 of the month at 18:00 UTC
  • Clouds: A few at 671 meters
  • Visibility: Greater than 10 km
  • Wind: 300 degrees at 5
  • Expected to arise temporarily, from 07 February at 05:00 UTC, to day 07 of the month at 08:00 UTC
  • Clouds: A few at 518 meters, cumulonimbus
  • Visibility: 5000 meters
  • Other: Thunderstorms rain